Time;durP1;ratioP1;P1;durP2;ratioP2;P2;SDS_P1;SDS_P2;PMS_P1;PMS_P2;Temp;Humidity;BMP_temperature;BMP_pressure;BME280_temperature;BME280_humidity;BME280_pressure;Samples;Min_cycle;Max_cycle;Signal;HPM_P1;HPM_P2
2021/07/14 00:00:45;;;;;;;53.60;6.97;;;17.90;87.90;;;;;;4978523;28;20116;-59
2021/07/14 00:03:11;;;;;;;59.38;6.95;;;18.00;87.90;;;;;;4982772;28;20129;-58
2021/07/14 00:05:38;;;;;;;54.00;7.68;;;18.00;87.90;;;;;;4982880;28;20026;-58
2021/07/14 00:08:03;;;;;;;51.03;6.32;;;17.90;87.90;;;;;;4982671;28;20549;-58
2021/07/14 00:10:31;;;;;;;51.47;6.72;;;17.90;87.90;;;;;;4981738;28;20130;-59
2021/07/14 00:23:13;;;;;;;42.83;6.15;;;17.80;87.90;;;;;;4983305;28;20046;-58
2021/07/14 00:25:38;;;;;;;44.22;6.88;;;17.80;87.90;;;;;;4965537;28;20026;-58
2021/07/14 00:28:04;;;;;;;43.20;6.18;;;17.70;87.80;;;;;;4979512;28;20038;-58
2021/07/14 00:30:31;;;;;;;37.65;6.07;;;17.80;87.90;;;;;;4981758;28;20053;-58
2021/07/14 00:32:56;;;;;;;38.53;6.40;;;17.80;88.00;;;;;;4982616;28;20343;-57
2021/07/14 00:35:22;;;;;;;31.23;6.13;;;17.70;87.90;;;;;;4982135;28;20049;-57
2021/07/14 00:37:48;;;;;;;24.35;5.03;;;17.70;87.90;;;;;;4976038;28;20061;-58
2021/07/14 00:40:14;;;;;;;32.83;5.28;;;17.70;87.90;;;;;;4979522;28;20427;-58
2021/07/14 00:42:40;;;;;;;35.20;5.03;;;17.70;88.00;;;;;;4981133;28;20030;-58
2021/07/14 00:45:06;;;;;;;26.63;6.00;;;17.70;88.00;;;;;;4981983;28;20057;-58
2021/07/14 00:47:33;;;;;;;23.88;6.93;;;17.70;88.10;;;;;;4981419;28;20069;-57
2021/07/14 00:49:59;;;;;;;29.40;7.57;;;17.60;88.00;;;;;;4980755;28;20023;-58
2021/07/14 00:52:25;;;;;;;25.92;6.25;;;17.60;88.10;;;;;;4981085;28;20030;-58
2021/07/14 00:54:50;;;;;;;26.33;6.65;;;17.60;88.20;;;;;;4981320;28;20091;-58
2021/07/14 00:57:18;;;;;;;24.65;5.68;;;17.60;88.10;;;;;;4981803;28;20030;-58
2021/07/14 00:59:43;;;;;;;13.18;4.88;;;17.60;88.10;;;;;;4981310;28;20026;-58
2021/07/14 01:02:09;;;;;;;18.42;5.60;;;17.60;88.10;;;;;;4981161;28;20045;-58
2021/07/14 01:04:37;;;;;;;17.50;5.57;;;17.60;88.10;;;;;;4980866;28;20042;-59
2021/07/14 01:07:08;;;;;;;25.00;6.93;;;17.60;88.10;;;;;;4980359;28;20042;-58
2021/07/14 01:09:47;;;;;;;23.08;6.13;;;17.60;88.10;;;;;;4980545;28;20023;-58
2021/07/14 01:12:19;;;;;;;21.88;5.85;;;17.60;88.10;;;;;;4978872;28;20225;-58
2021/07/14 01:15:12;;;;;;;24.17;5.57;;;17.60;88.10;;;;;;4981426;28;20538;-58
2021/07/14 01:17:43;;;;;;;21.35;4.72;;;17.60;88.10;;;;;;4980797;28;20454;-58
2021/07/14 01:20:17;;;;;;;17.38;4.57;;;17.50;88.10;;;;;;4980133;28;20038;-58
2021/07/14 01:23:12;;;;;;;22.25;4.70;;;17.50;88.20;;;;;;4980628;28;21276;-58
2021/07/14 01:25:52;;;;;;;16.05;4.60;;;17.50;88.20;;;;;;4982748;28;20129;-57
2021/07/14 01:28:22;;;;;;;19.13;4.90;;;17.50;88.20;;;;;;4979618;28;20026;-57
2021/07/14 01:30:48;;;;;;;18.67;4.88;;;17.50;88.20;;;;;;4979356;28;20537;-58
2021/07/14 01:33:13;;;;;;;16.88;6.30;;;17.50;88.20;;;;;;4981324;28;20038;-58
2021/07/14 01:35:41;;;;;;;10.98;5.82;;;17.50;88.30;;;;;;4981303;28;20038;-58
2021/07/14 01:38:06;;;;;;;11.98;4.90;;;17.50;88.30;;;;;;4981019;28;20050;-58
2021/07/14 01:40:32;;;;;;;13.15;4.38;;;17.50;88.40;;;;;;4981411;28;20022;-58
2021/07/14 01:42:59;;;;;;;13.85;4.93;;;17.50;88.30;;;;;;4980805;28;20057;-58
2021/07/14 01:45:29;;;;;;;14.50;4.40;;;17.40;88.30;;;;;;4976569;28;20394;-58
2021/07/14 01:47:54;;;;;;;14.23;4.32;;;17.40;88.40;;;;;;4965695;28;20061;-58
2021/07/14 01:50:20;;;;;;;10.05;4.40;;;17.40;88.30;;;;;;4981421;28;20082;-58
2021/07/14 01:52:45;;;;;;;8.50;4.50;;;17.40;88.40;;;;;;4964467;28;20043;-58
2021/07/14 01:55:12;;;;;;;10.98;3.60;;;17.40;88.30;;;;;;4982475;28;20046;-58
2021/07/14 01:57:38;;;;;;;10.25;3.20;;;17.40;88.30;;;;;;4984933;28;20246;-59
2021/07/14 02:00:13;;;;;;;8.85;4.10;;;17.40;88.30;;;;;;4971408;28;20133;-58
2021/07/14 02:02:48;;;;;;;14.02;4.10;;;17.40;88.30;;;;;;4984273;28;20030;-58
2021/07/14 02:05:14;;;;;;;6.60;3.13;;;17.40;88.30;;;;;;4984171;28;20083;-58
2021/07/14 02:07:39;;;;;;;11.65;3.55;;;17.40;88.40;;;;;;4983608;28;20034;-58
2021/07/14 02:10:05;;;;;;;10.75;3.33;;;17.40;88.40;;;;;;4983704;28;20034;-57
2021/07/14 02:12:32;;;;;;;9.70;3.17;;;17.40;88.40;;;;;;4985430;28;20040;-58
2021/07/14 02:15:02;;;;;;;11.02;3.17;;;17.40;88.50;;;;;;4984718;28;20021;-58
2021/07/14 02:17:29;;;;;;;7.07;2.53;;;17.40;88.50;;;;;;4985764;28;20053;-58
2021/07/14 02:20:08;;;;;;;7.32;3.83;;;17.40;88.60;;;;;;4982239;28;20033;-58
2021/07/14 02:22:33;;;;;;;6.82;3.00;;;17.30;88.60;;;;;;4984618;28;20578;-58
2021/07/14 02:24:59;;;;;;;7.07;2.90;;;17.30;88.60;;;;;;4979779;28;20134;-58
2021/07/14 02:27:24;;;;;;;10.35;2.95;;;17.30;88.70;;;;;;4968719;28;20497;-58
2021/07/14 02:29:50;;;;;;;5.78;3.00;;;17.30;88.70;;;;;;4983699;28;20072;-58
2021/07/14 02:32:20;;;;;;;8.57;2.85;;;17.30;88.80;;;;;;4983401;28;20038;-57
2021/07/14 02:34:47;;;;;;;10.10;3.13;;;17.30;88.70;;;;;;4982865;28;20043;-57
2021/07/14 02:37:13;;;;;;;6.63;2.90;;;17.30;88.80;;;;;;4982962;28;20556;-58
2021/07/14 02:39:41;;;;;;;7.75;3.05;;;17.30;88.80;;;;;;4998918;28;20050;-58
2021/07/14 02:42:12;;;;;;;7.53;3.15;;;17.30;88.90;;;;;;4983409;28;20026;-58
2021/07/14 02:44:40;;;;;;;5.53;2.72;;;17.30;88.90;;;;;;4983683;28;20022;-58
2021/07/14 02:47:05;;;;;;;7.95;2.90;;;17.30;89.00;;;;;;4981882;28;20144;-59
2021/07/14 02:49:31;;;;;;;9.07;2.45;;;17.30;89.00;;;;;;4983759;28;20477;-58
2021/07/14 02:51:57;;;;;;;6.32;2.95;;;17.30;89.10;;;;;;4982385;28;20403;-58
2021/07/14 02:54:28;;;;;;;11.00;2.70;;;17.30;89.10;;;;;;4980026;28;20022;-57
2021/07/14 02:57:02;;;;;;;4.65;2.40;;;17.30;89.10;;;;;;4970559;28;20476;-58
2021/07/14 02:59:37;;;;;;;5.57;2.50;;;17.30;89.10;;;;;;4982172;28;20041;-58
2021/07/14 03:02:03;;;;;;;5.82;2.50;;;17.30;89.10;;;;;;4976940;28;20029;-58
2021/07/14 03:04:33;;;;;;;4.65;2.83;;;17.30;89.10;;;;;;4983904;28;20406;-58
2021/07/14 03:07:02;;;;;;;7.40;2.47;;;17.20;89.00;;;;;;4982062;28;20088;-58
2021/07/14 03:09:37;;;;;;;2.65;2.00;;;17.30;89.10;;;;;;4982273;28;20042;-58
2021/07/14 03:12:03;;;;;;;5.27;2.37;;;17.30;89.10;;;;;;4980880;28;20030;-58
2021/07/14 03:14:29;;;;;;;8.63;2.33;;;17.30;89.10;;;;;;4982352;28;20077;-58
2021/07/14 03:16:54;;;;;;;3.42;1.98;;;17.20;89.10;;;;;;4982684;28;20038;-58
2021/07/14 03:19:20;;;;;;;5.93;2.28;;;17.20;89.20;;;;;;4981318;28;20022;-58
2021/07/14 03:21:45;;;;;;;4.85;2.08;;;17.30;89.30;;;;;;4982474;28;20450;-58
2021/07/14 03:24:11;;;;;;;5.35;2.20;;;17.30;89.40;;;;;;4980800;28;20044;-59
2021/07/14 03:26:37;;;;;;;4.55;2.10;;;17.30;89.40;;;;;;4982604;28;20347;-58
2021/07/14 03:29:03;;;;;;;3.85;2.20;;;17.20;89.50;;;;;;4979598;28;20540;-58
2021/07/14 03:31:29;;;;;;;3.20;1.70;;;17.20;89.60;;;;;;4981708;28;20042;-58
2021/07/14 03:33:55;;;;;;;4.55;1.70;;;17.20;89.60;;;;;;4982208;28;20022;-58
2021/07/14 03:36:21;;;;;;;3.45;2.00;;;17.20;89.70;;;;;;4977677;28;20065;-58
2021/07/14 03:38:46;;;;;;;3.13;2.00;;;17.20;89.80;;;;;;4980057;28;20050;-58
2021/07/14 03:41:12;;;;;;;6.18;1.85;;;17.20;89.80;;;;;;4965270;28;20362;-58
2021/07/14 03:43:37;;;;;;;3.55;2.08;;;17.20;90.00;;;;;;4980127;28;20133;-58
2021/07/14 03:46:03;;;;;;;6.38;2.10;;;17.20;90.00;;;;;;4964353;28;20038;-58
2021/07/14 03:48:30;;;;;;;6.15;2.00;;;17.20;90.00;;;;;;4981649;28;20101;-58
2021/07/14 03:50:55;;;;;;;3.70;1.88;;;17.20;90.00;;;;;;4979656;28;20061;-58
2021/07/14 03:53:21;;;;;;;4.10;1.67;;;17.20;90.00;;;;;;4966356;28;20034;-58
2021/07/14 03:55:47;;;;;;;2.00;1.80;;;17.20;90.00;;;;;;4982333;28;20496;-58
2021/07/14 03:58:12;;;;;;;3.50;2.03;;;17.20;90.00;;;;;;4982954;28;20516;-58
2021/07/14 04:00:38;;;;;;;6.55;2.00;;;17.20;90.00;;;;;;4997186;28;20157;-58
2021/07/14 04:03:03;;;;;;;3.92;1.85;;;17.20;90.00;;;;;;4982337;28;20081;-58
2021/07/14 04:05:29;;;;;;;1.70;1.52;;;17.20;90.00;;;;;;4981366;28;20046;-58
2021/07/14 04:07:54;;;;;;;5.35;1.90;;;17.20;90.00;;;;;;4979384;28;20043;-58
2021/07/14 04:10:20;;;;;;;5.50;1.92;;;17.20;90.00;;;;;;4981005;28;20490;-58
2021/07/14 04:12:45;;;;;;;2.80;1.77;;;17.10;90.00;;;;;;4966472;28;20541;-58
2021/07/14 04:15:11;;;;;;;1.73;1.60;;;17.20;90.00;;;;;;4981563;28;20073;-58
2021/07/14 04:17:37;;;;;;;5.93;1.75;;;17.10;90.00;;;;;;4980788;28;20034;-58
2021/07/14 04:20:02;;;;;;;2.28;1.77;;;17.10;90.00;;;;;;4981885;28;20050;-58
2021/07/14 04:22:28;;;;;;;2.28;1.67;;;17.10;90.00;;;;;;4982325;28;20187;-58
2021/07/14 04:24:54;;;;;;;3.28;1.80;;;17.10;90.10;;;;;;4981997;28;20117;-58
2021/07/14 04:27:19;;;;;;;5.88;1.65;;;17.10;90.10;;;;;;4983196;28;20035;-58
2021/07/14 04:29:45;;;;;;;1.75;1.50;;;17.00;90.00;;;;;;4998015;28;20042;-58
2021/07/14 04:32:10;;;;;;;2.28;1.55;;;17.00;90.00;;;;;;4982039;28;20041;-57
2021/07/14 04:34:36;;;;;;;4.55;1.60;;;17.00;90.00;;;;;;4984638;28;20536;-57
2021/07/14 04:37:01;;;;;;;3.13;2.00;;;17.00;90.00;;;;;;4982049;28;20050;-58
2021/07/14 04:39:27;;;;;;;2.83;1.90;;;17.00;90.00;;;;;;4981526;28;20117;-58
2021/07/14 04:41:52;;;;;;;2.95;1.50;;;17.00;90.00;;;;;;4979561;28;20260;-58
2021/07/14 04:44:30;;;;;;;1.48;1.30;;;17.00;90.00;;;;;;4980624;28;20050;-58
2021/07/14 04:46:56;;;;;;;3.97;1.88;;;17.00;90.00;;;;;;4982764;28;20026;-57
2021/07/14 04:49:22;;;;;;;2.38;1.45;;;17.00;90.00;;;;;;4982155;28;20031;-58
2021/07/14 04:51:47;;;;;;;2.75;1.90;;;17.00;90.00;;;;;;4981541;28;20286;-58
2021/07/14 04:54:13;;;;;;;2.72;1.63;;;17.00;90.00;;;;;;4981425;28;20031;-58
2021/07/14 04:56:38;;;;;;;3.28;1.40;;;17.00;90.00;;;;;;4982774;28;20572;-58
2021/07/14 04:59:04;;;;;;;4.45;1.63;;;17.00;90.00;;;;;;4982147;28;20034;-58
2021/07/14 05:01:31;;;;;;;2.10;1.40;;;17.00;90.00;;;;;;4981788;28;20057;-58
2021/07/14 05:03:56;;;;;;;4.53;1.38;;;17.00;90.00;;;;;;4983108;28;20121;-57
2021/07/14 05:06:22;;;;;;;2.42;1.35;;;17.00;90.00;;;;;;4980821;28;20530;-58
2021/07/14 05:08:47;;;;;;;2.25;1.38;;;17.00;90.00;;;;;;4981552;28;20105;-58
2021/07/14 05:11:14;;;;;;;4.68;1.60;;;16.90;90.00;;;;;;4981626;28;20078;-58
2021/07/14 05:13:39;;;;;;;4.10;1.65;;;16.90;90.00;;;;;;4982231;28;20034;-58
2021/07/14 05:16:07;;;;;;;2.53;1.40;;;16.90;90.00;;;;;;4983109;28;20145;-58
2021/07/14 05:18:33;;;;;;;1.38;1.10;;;16.90;90.00;;;;;;4981001;28;20034;-58
2021/07/14 05:20:59;;;;;;;5.70;1.65;;;16.90;90.10;;;;;;4982993;28;20048;-61
2021/07/14 05:23:25;;;;;;;2.50;1.48;;;16.90;90.00;;;;;;4978140;28;20056;-58
2021/07/14 05:25:50;;;;;;;2.88;1.60;;;16.90;90.00;;;;;;4982322;28;20485;-58
2021/07/14 05:28:16;;;;;;;2.38;1.38;;;16.90;90.00;;;;;;4981960;28;20034;-58
2021/07/14 05:30:41;;;;;;;5.68;1.80;;;16.90;90.00;;;;;;4983664;28;20035;-58
2021/07/14 05:33:07;;;;;;;3.25;1.85;;;16.90;90.00;;;;;;4985219;28;20022;-58
2021/07/14 05:35:33;;;;;;;1.95;1.63;;;16.90;90.00;;;;;;4985413;28;20117;-58
2021/07/14 05:37:58;;;;;;;2.08;1.77;;;16.90;90.00;;;;;;4969273;28;20273;-58
2021/07/14 05:40:24;;;;;;;1.80;1.40;;;16.90;90.00;;;;;;4984527;28;20042;-58
2021/07/14 05:42:50;;;;;;;7.43;1.95;;;16.90;90.10;;;;;;4984090;28;20042;-58
2021/07/14 05:45:15;;;;;;;2.75;1.65;;;16.90;90.10;;;;;;4986691;28;20057;-58
2021/07/14 05:47:41;;;;;;;4.47;1.70;;;16.90;90.10;;;;;;4984748;28;20397;-58
2021/07/14 05:50:07;;;;;;;1.55;1.40;;;16.90;90.10;;;;;;4985932;28;20038;-58
2021/07/14 05:52:33;;;;;;;2.72;1.30;;;16.90;90.10;;;;;;4986103;28;20019;-58
2021/07/14 05:54:58;;;;;;;2.72;1.73;;;16.90;90.10;;;;;;4984454;28;20037;-58
2021/07/14 05:57:24;;;;;;;2.05;1.30;;;16.90;90.10;;;;;;4963119;28;20054;-58
2021/07/14 05:59:49;;;;;;;1.65;1.30;;;16.90;90.10;;;;;;4968627;28;20112;-57
2021/07/14 06:02:15;;;;;;;1.23;1.10;;;16.90;90.10;;;;;;4986217;28;20072;-58
2021/07/14 06:04:40;;;;;;;1.80;1.40;;;16.90;90.10;;;;;;4984586;28;20116;-57
2021/07/14 06:07:07;;;;;;;3.72;1.60;;;16.90;90.10;;;;;;4985319;28;20062;-59
2021/07/14 06:09:33;;;;;;;2.05;1.33;;;16.90;90.20;;;;;;4982940;28;20042;-58
2021/07/14 06:11:58;;;;;;;1.63;1.38;;;16.90;90.20;;;;;;4967832;28;20032;-58
2021/07/14 06:14:24;;;;;;;2.58;1.58;;;16.90;90.20;;;;;;4968027;28;20415;-57
2021/07/14 06:16:50;;;;;;;2.10;1.45;;;16.80;90.20;;;;;;4972203;28;20050;-58
2021/07/14 06:19:15;;;;;;;1.80;1.35;;;16.80;90.30;;;;;;4974523;28;20183;-58
2021/07/14 06:21:41;;;;;;;3.08;1.80;;;16.80;90.30;;;;;;4968281;28;20035;-58
2021/07/14 06:24:06;;;;;;;5.70;1.88;;;16.80;90.30;;;;;;4994371;28;20042;-57
2021/07/14 06:26:32;;;;;;;5.88;2.20;;;16.80;90.30;;;;;;4974801;28;20450;-58
2021/07/14 06:28:58;;;;;;;3.78;2.00;;;16.80;90.40;;;;;;4978715;28;20125;-59
2021/07/14 06:31:23;;;;;;;2.22;1.90;;;16.80;90.40;;;;;;4982305;28;20030;-61
2021/07/14 06:33:49;;;;;;;3.50;1.95;;;17.10;90.50;;;;;;4956288;28;20070;-60
2021/07/14 06:36:14;;;;;;;4.55;1.80;;;16.90;90.50;;;;;;4975585;28;20117;-57
2021/07/14 06:38:40;;;;;;;2.08;1.67;;;16.90;90.40;;;;;;4975215;28;20141;-58
2021/07/14 06:41:06;;;;;;;3.28;2.05;;;16.90;90.40;;;;;;4976556;28;20039;-59
2021/07/14 06:43:41;;;;;;;3.60;1.75;;;16.90;90.50;;;;;;4981424;28;20014;-57
2021/07/14 06:46:08;;;;;;;8.03;1.90;;;16.90;90.60;;;;;;4973422;28;20109;-58
2021/07/14 06:48:33;;;;;;;5.13;1.83;;;16.80;90.60;;;;;;4993172;28;20068;-57
2021/07/14 06:50:58;;;;;;;6.88;2.10;;;16.90;90.60;;;;;;4973195;28;20061;-57
2021/07/14 06:53:24;;;;;;;7.80;2.33;;;16.90;90.70;;;;;;4978899;28;20058;-57
2021/07/14 06:55:50;;;;;;;5.60;1.88;;;16.90;90.70;;;;;;4964051;28;20058;-58
2021/07/14 06:58:15;;;;;;;10.68;2.08;;;16.90;90.70;;;;;;4981179;28;20129;-58
2021/07/14 07:00:41;;;;;;;17.98;2.50;;;16.90;90.70;;;;;;4980064;28;20084;-57
2021/07/14 07:03:06;;;;;;;10.57;2.45;;;16.90;90.80;;;;;;4994345;28;20034;-58
2021/07/14 07:05:32;;;;;;;5.13;2.17;;;16.90;90.70;;;;;;4982318;28;20419;-58
2021/07/14 07:07:58;;;;;;;6.28;2.28;;;16.90;91.00;;;;;;4980151;28;20056;-57
2021/07/14 07:10:23;;;;;;;4.80;1.98;;;16.90;91.00;;;;;;4981080;28;20054;-57
2021/07/14 07:12:49;;;;;;;10.05;2.08;;;16.90;91.00;;;;;;4979600;28;20130;-58
2021/07/14 07:15:18;;;;;;;9.35;2.10;;;16.90;91.00;;;;;;4976768;28;20661;-57
2021/07/14 07:17:44;;;;;;;10.77;2.30;;;16.90;91.20;;;;;;4977610;28;20021;-57
2021/07/14 07:20:10;;;;;;;16.77;2.40;;;16.90;91.30;;;;;;4977559;28;20088;-57
2021/07/14 07:22:35;;;;;;;7.65;2.03;;;16.90;91.40;;;;;;4978113;28;20088;-57
2021/07/14 07:25:02;;;;;;;12.35;2.83;;;16.90;91.30;;;;;;4977335;28;20026;-57
2021/07/14 07:27:33;;;;;;;11.13;2.55;;;16.90;91.40;;;;;;4975609;28;20068;-58
2021/07/14 07:29:59;;;;;;;15.55;2.78;;;16.90;91.40;;;;;;4993979;28;20592;-58
2021/07/14 07:32:25;;;;;;;21.05;3.63;;;17.00;91.50;;;;;;4976963;28;20014;-58
2021/07/14 07:34:50;;;;;;;22.63;2.95;;;17.00;91.50;;;;;;4979832;28;20161;-58
2021/07/14 07:37:16;;;;;;;8.75;2.40;;;17.00;91.40;;;;;;4977138;28;20509;-58
2021/07/14 07:39:42;;;;;;;11.93;2.80;;;17.10;91.70;;;;;;4975925;28;20038;-58
2021/07/14 07:42:08;;;;;;;14.32;2.63;;;17.10;91.60;;;;;;4980165;28;20132;-58
2021/07/14 07:44:33;;;;;;;16.35;2.50;;;16.90;91.60;;;;;;4977094;28;20022;-58
2021/07/14 07:46:59;;;;;;;19.73;2.92;;;17.10;91.50;;;;;;4976370;28;20038;-59
2021/07/14 07:49:24;;;;;;;22.13;3.08;;;17.20;91.40;;;;;;4979170;28;20054;-58
2021/07/14 07:51:50;;;;;;;20.20;2.90;;;17.20;91.60;;;;;;4977389;28;21112;-58
2021/07/14 07:54:15;;;;;;;39.75;3.90;;;17.20;91.90;;;;;;4993038;28;20049;-58
2021/07/14 07:56:41;;;;;;;22.98;3.70;;;17.20;92.00;;;;;;4975116;28;20226;-58
2021/07/14 07:59:07;;;;;;;42.10;5.15;;;17.20;92.00;;;;;;4977733;28;20026;-57
2021/07/14 08:01:32;;;;;;;26.27;3.58;;;17.20;92.10;;;;;;4972542;28;20201;-58
2021/07/14 08:03:58;;;;;;;41.80;4.20;;;17.30;92.30;;;;;;4969609;28;20096;-58
2021/07/14 08:06:23;;;;;;;24.77;4.53;;;17.30;92.20;;;;;;4955065;28;20092;-58
2021/07/14 08:08:49;;;;;;;45.78;6.47;;;17.30;92.10;;;;;;4969589;28;20117;-58
2021/07/14 08:11:14;;;;;;;37.60;4.63;;;17.30;92.10;;;;;;4967953;28;20112;-58
2021/07/14 08:13:40;;;;;;;202.50;16.42;;;17.40;92.30;;;;;;4971629;28;20042;-58
2021/07/14 08:16:07;;;;;;;85.43;8.02;;;17.40;92.00;;;;;;4968624;28;20109;-57
2021/07/14 08:18:32;;;;;;;53.28;6.15;;;17.40;92.30;;;;;;4968537;28;20042;-57
2021/07/14 08:20:58;;;;;;;51.10;6.18;;;17.50;92.50;;;;;;4971981;28;20120;-57
2021/07/14 08:23:25;;;;;;;77.50;7.93;;;17.50;92.60;;;;;;4993262;28;20026;-58
2021/07/14 08:25:53;;;;;;;136.80;12.15;;;17.60;92.50;;;;;;4978549;28;20053;-58
2021/07/14 08:28:19;;;;;;;101.28;9.18;;;17.60;92.60;;;;;;4978372;28;20030;-58
2021/07/14 08:30:45;;;;;;;54.38;7.43;;;17.60;92.50;;;;;;4977416;28;20182;-57
2021/07/14 08:33:10;;;;;;;67.18;9.30;;;17.60;92.70;;;;;;4978436;28;20129;-58
2021/07/14 08:35:39;;;;;;;64.68;7.15;;;17.80;92.60;;;;;;4961225;28;20022;-58
2021/07/14 08:38:05;;;;;;;75.05;8.45;;;17.70;92.50;;;;;;4976986;28;20120;-59
2021/07/14 08:40:30;;;;;;;66.80;7.38;;;17.70;92.30;;;;;;4978620;28;20113;-58
2021/07/14 08:42:57;;;;;;;61.25;6.70;;;17.70;92.30;;;;;;4978983;28;20084;-57
2021/07/14 08:45:23;;;;;;;52.80;6.15;;;17.70;92.10;;;;;;4978679;28;20037;-58
2021/07/14 08:47:48;;;;;;;56.90;7.22;;;17.80;92.10;;;;;;4974414;28;20042;-58
2021/07/14 08:50:19;;;;;;;61.20;5.93;;;17.80;92.30;;;;;;4948139;28;20031;-58
2021/07/14 08:52:47;;;;;;;79.88;9.15;;;17.80;92.50;;;;;;4977887;28;20294;-57
2021/07/14 08:55:13;;;;;;;85.20;9.75;;;17.90;92.60;;;;;;4978384;28;20422;-59
2021/07/14 08:57:39;;;;;;;80.78;6.93;;;17.90;92.60;;;;;;4976365;28;20114;-58
2021/07/14 09:00:17;;;;;;;104.32;9.80;;;17.90;92.70;;;;;;4976363;28;20039;-58
2021/07/14 09:02:43;;;;;;;89.20;8.32;;;18.00;92.50;;;;;;4970398;28;20042;-57
2021/07/14 09:05:09;;;;;;;84.50;9.32;;;18.00;92.40;;;;;;4977604;28;20108;-58
2021/07/14 09:07:36;;;;;;;72.55;9.65;;;18.10;92.30;;;;;;4978062;28;20061;-58
2021/07/14 09:10:03;;;;;;;84.22;9.48;;;18.10;92.20;;;;;;4978208;28;20704;-58
2021/07/14 09:12:40;;;;;;;83.30;9.43;;;18.20;92.10;;;;;;4974038;28;20904;-58
2021/07/14 09:15:10;;;;;;;94.05;9.98;;;18.20;92.00;;;;;;4974777;28;20145;-58
2021/07/14 09:17:42;;;;;;;83.18;10.27;;;18.30;91.90;;;;;;4958177;28;20378;-58
2021/07/14 09:20:11;;;;;;;82.32;9.52;;;18.40;91.90;;;;;;4977663;28;20022;-58
2021/07/14 09:22:37;;;;;;;122.50;13.23;;;18.40;91.80;;;;;;4980572;28;20034;-59
2021/07/14 09:25:13;;;;;;;118.63;11.38;;;18.50;91.80;;;;;;4980099;28;20140;-58
2021/07/14 09:27:39;;;;;;;120.35;13.50;;;18.50;91.80;;;;;;4979592;28;20042;-58
2021/07/14 09:30:12;;;;;;;116.72;11.27;;;18.60;91.80;;;;;;4977711;28;20057;-58
2021/07/14 09:32:54;;;;;;;150.27;13.00;;;18.60;91.70;;;;;;4978342;28;22001;-59
2021/07/14 09:35:32;;;;;;;101.05;9.60;;;18.70;91.50;;;;;;4978084;28;20074;-58
2021/07/14 09:38:01;;;;;;;106.15;9.93;;;18.70;91.40;;;;;;4980641;28;20046;-58
2021/07/14 09:40:27;;;;;;;119.00;13.05;;;18.80;91.30;;;;;;4944725;28;20042;-58
2021/07/14 09:42:55;;;;;;;103.47;11.18;;;18.90;91.40;;;;;;4976674;28;20026;-58
2021/07/14 09:45:37;;;;;;;95.45;9.90;;;18.90;91.30;;;;;;4978312;28;20398;-58
2021/07/14 09:48:03;;;;;;;94.43;10.68;;;18.90;91.10;;;;;;4981252;28;20065;-58
2021/07/14 09:50:40;;;;;;;119.10;10.95;;;19.00;91.00;;;;;;4976944;28;20046;-59
2021/07/14 09:53:08;;;;;;;100.63;10.27;;;19.10;90.90;;;;;;4979212;28;20019;-59
2021/07/14 09:55:33;;;;;;;76.95;9.57;;;19.20;90.90;;;;;;4962652;28;20026;-58
2021/07/14 09:58:37;;;;;;;88.07;9.13;;;19.20;90.80;;;;;;4979912;28;20375;-58
2021/07/14 10:01:04;;;;;;;75.93;8.82;;;19.30;90.70;;;;;;4966502;28;20471;-58
2021/07/14 10:03:34;;;;;;;90.45;11.02;;;19.30;90.60;;;;;;4951997;28;20128;-58
2021/07/14 10:06:07;;;;;;;92.65;9.30;;;19.30;90.50;;;;;;4984837;28;20121;-58
2021/07/14 10:08:34;;;;;;;57.90;8.85;;;19.40;90.30;;;;;;4976526;28;20022;-59
2021/07/14 10:11:18;;;;;;;81.13;9.32;;;19.40;90.30;;;;;;4958804;28;20039;-58
2021/07/14 10:14:00;;;;;;;91.15;11.82;;;19.50;90.30;;;;;;4977489;28;20125;-59
2021/07/14 10:16:30;;;;;;;113.82;11.98;;;19.60;90.30;;;;;;4972255;28;20570;-58
2021/07/14 10:19:00;;;;;;;106.82;12.45;;;19.60;90.10;;;;;;4956069;28;20117;-58
2021/07/14 10:21:26;;;;;;;119.22;11.60;;;19.70;90.10;;;;;;4990423;28;20133;-58
2021/07/14 10:23:52;;;;;;;86.20;9.55;;;19.70;90.10;;;;;;4975183;28;20066;-58
2021/07/14 10:26:17;;;;;;;139.30;11.65;;;19.70;90.00;;;;;;4975988;28;20045;-58
2021/07/14 10:28:44;;;;;;;104.55;12.50;;;19.80;90.00;;;;;;4974871;28;20052;-58
2021/07/14 10:31:09;;;;;;;140.45;13.52;;;19.80;89.50;;;;;;4975426;28;20073;-58
2021/07/14 10:33:35;;;;;;;96.45;10.40;;;19.90;89.30;;;;;;4975781;28;20042;-58
2021/07/14 10:36:01;;;;;;;88.30;10.27;;;19.90;88.90;;;;;;4970214;28;20088;-59
2021/07/14 10:38:27;;;;;;;103.82;10.80;;;19.80;88.40;;;;;;4958460;28;20053;-58
2021/07/14 10:40:54;;;;;;;87.32;10.40;;;20.00;88.50;;;;;;4974630;28;20739;-58
2021/07/14 10:43:24;;;;;;;83.70;9.45;;;20.00;88.60;;;;;;4975012;28;20129;-59
2021/07/14 10:45:50;;;;;;;100.40;10.35;;;20.10;88.60;;;;;;4958701;28;20034;-59
2021/07/14 10:48:16;;;;;;;86.63;9.18;;;20.10;88.40;;;;;;4971853;28;20038;-64
2021/07/14 10:50:42;;;;;;;82.15;9.63;;;20.20;88.00;;;;;;4975542;28;20034;-59
2021/07/14 10:53:10;;;;;;;82.15;10.20;;;20.20;87.60;;;;;;4989858;28;20085;-58
2021/07/14 10:55:36;;;;;;;93.47;10.38;;;20.20;87.30;;;;;;4961035;28;20036;-58
2021/07/14 10:58:01;;;;;;;103.40;10.77;;;20.20;87.10;;;;;;4964087;28;20034;-58
2021/07/14 11:00:27;;;;;;;94.03;9.55;;;20.30;86.50;;;;;;4970555;28;20143;-58
2021/07/14 11:02:54;;;;;;;106.10;11.85;;;20.40;86.50;;;;;;4959910;28;20038;-61
2021/07/14 11:06:02;;;;;;;108.28;12.30;;;20.40;86.30;;;;;;4972112;28;20117;-58
2021/07/14 11:08:38;;;;;;;113.45;13.05;;;20.50;85.60;;;;;;4905908;28;20958;-59
2021/07/14 11:11:04;;;;;;;104.70;10.55;;;20.60;85.30;;;;;;4908672;28;20601;-58
2021/07/14 11:13:31;;;;;;;129.05;12.07;;;20.60;85.10;;;;;;4941482;28;20034;-59
2021/07/14 11:15:58;;;;;;;103.38;13.18;;;20.70;85.10;;;;;;4965047;28;20038;-58
2021/07/14 11:18:29;;;;;;;99.13;11.32;;;20.70;85.00;;;;;;4965229;28;20042;-58
2021/07/14 11:20:56;;;;;;;114.50;13.63;;;20.80;84.80;;;;;;4990876;28;20363;-58
2021/07/14 11:23:23;;;;;;;102.28;11.82;;;20.80;85.00;;;;;;4958980;28;20050;-60
2021/07/14 11:25:50;;;;;;;75.85;11.00;;;20.80;84.80;;;;;;4972092;28;20053;-61
2021/07/14 11:28:15;;;;;;;144.20;14.05;;;20.90;84.50;;;;;;4971579;28;20030;-61
2021/07/14 11:30:48;;;;;;;181.73;16.73;;;20.90;84.40;;;;;;4974880;28;20446;-61
2021/07/14 11:33:19;;;;;;;117.85;12.48;;;21.00;84.60;;;;;;4973748;28;20030;-59
2021/07/14 11:36:01;;;;;;;158.40;14.98;;;21.00;84.20;;;;;;4972149;28;20038;-59
2021/07/14 11:38:41;;;;;;;157.20;15.77;;;21.00;84.40;;;;;;4957731;28;20057;-59
2021/07/14 11:41:22;;;;;;;492.20;47.80;;;21.10;84.50;;;;;;4970471;28;20151;-59
2021/07/14 11:43:50;;;;;;;204.82;20.58;;;21.10;84.60;;;;;;4962226;28;20080;-60
2021/07/14 11:46:16;;;;;;;150.52;14.63;;;21.20;84.50;;;;;;4968850;28;20468;-60
2021/07/14 11:48:48;;;;;;;237.80;21.98;;;21.20;84.40;;;;;;4972353;28;20056;-59
2021/07/14 11:51:17;;;;;;;172.60;17.52;;;21.30;84.30;;;;;;4972677;28;20100;-59
2021/07/14 11:53:59;;;;;;;157.50;15.05;;;21.30;83.90;;;;;;4975758;28;20030;-59
2021/07/14 11:56:38;;;;;;;210.30;20.02;;;21.30;84.00;;;;;;4976581;28;20069;-59
2021/07/14 11:59:20;;;;;;;184.35;18.02;;;21.30;83.90;;;;;;4971143;28;20041;-59
2021/07/14 12:01:47;;;;;;;180.32;19.05;;;21.50;84.00;;;;;;4969398;28;20790;-59
2021/07/14 12:04:12;;;;;;;207.77;17.95;;;21.60;83.80;;;;;;4973069;28;20145;-59
2021/07/14 12:06:52;;;;;;;187.63;18.50;;;21.80;83.50;;;;;;4985884;28;20097;-59
2021/07/14 12:09:18;;;;;;;209.73;20.00;;;21.90;83.20;;;;;;4930914;28;20099;-59
2021/07/14 12:11:43;;;;;;;165.15;17.35;;;22.10;82.90;;;;;;4964439;28;21403;-59
2021/07/14 12:14:14;;;;;;;154.80;18.50;;;22.20;82.30;;;;;;4973419;28;20383;-59
2021/07/14 12:16:46;;;;;;;201.15;19.85;;;22.20;82.10;;;;;;4976495;28;20774;-59
2021/07/14 12:19:12;;;;;;;169.32;18.92;;;22.30;82.10;;;;;;4944991;28;20425;-59
2021/07/14 12:21:39;;;;;;;150.40;16.98;;;22.40;82.10;;;;;;4977399;28;20034;-59
2021/07/14 12:24:05;;;;;;;180.20;17.45;;;22.40;81.30;;;;;;4974538;28;20042;-60
2021/07/14 12:26:30;;;;;;;173.65;17.02;;;22.50;81.20;;;;;;4976353;28;20050;-60
2021/07/14 12:28:56;;;;;;;188.55;17.52;;;22.60;81.20;;;;;;4972179;28;20032;-60
2021/07/14 12:31:22;;;;;;;185.95;18.50;;;22.60;81.20;;;;;;4975002;28;20042;-59
2021/07/14 12:33:52;;;;;;;196.20;18.05;;;22.70;81.20;;;;;;4975222;28;20089;-60
2021/07/14 12:36:18;;;;;;;210.77;23.30;;;22.70;80.90;;;;;;4974872;28;20133;-60
2021/07/14 12:38:54;;;;;;;179.52;19.45;;;22.80;80.90;;;;;;4971576;28;20476;-59
2021/07/14 12:41:23;;;;;;;172.85;19.73;;;22.80;81.00;;;;;;4973503;28;20270;-60
2021/07/14 12:44:10;;;;;;;186.75;18.63;;;22.80;80.90;;;;;;4958261;28;20042;-60
2021/07/14 12:46:36;;;;;;;190.55;19.90;;;22.90;80.90;;;;;;4968966;28;20220;-61
2021/07/14 12:49:12;;;;;;;183.40;19.83;;;22.90;80.60;;;;;;4964936;28;20086;-60